Gravelly, Arkansas
Current Conditions -  °F | °C
As of 7:02 AM on Saturday 25 Oct 2014 (Local Time) from KMWT Reporting Station
Haze Haze  
Wind Chill: 13°   Ceiling: Unl
Heat Index: 13°   Visibility: 1mi
Dew Point: 12°   Wind: 0mph
Humidity: 93%   Direction: NA
Pressure: 30.1"   Gusts: NA
Location:  34.88°N, 93.69°W
Report Text: KMWT 251202Z AUTO 00000KT 1SM BR CLR 13/12 A3010 RMK AO2 T01330122
Loading
Personal Weather Stations






























Interactive Weather Map
Tropical Storm Tracking
New forecast layout! Learn more

10-Day Weather Forecast

Advertisements
Track Severe Weather on mobile